Time;durP1;ratioP1;P1;durP2;ratioP2;P2;SDS_P1;SDS_P2;PMS_P1;PMS_P2;Temp;Humidity;BMP_temperature;BMP_pressure;BME280_temperature;BME280_humidity;BME280_pressure;Samples;Min_cycle;Max_cycle;Signal;HPM_P1;HPM_P2
2022/05/08 00:02:25;;;;;;;4.93;2.20;;;;;;;18.10;45.42;98866.19;5071634;28;20021;-49
2022/05/08 00:04:52;;;;;;;5.38;1.80;;;;;;;18.03;45.66;98862.09;5072903;28;20517;-49
2022/05/08 00:07:22;;;;;;;5.68;2.40;;;;;;;18.02;45.93;98868.47;5072932;28;20435;-50
2022/05/08 00:09:48;;;;;;;10.43;3.03;;;;;;;18.05;45.79;98875.94;5072889;28;20029;-49
2022/05/08 00:12:17;;;;;;;10.82;2.78;;;;;;;18.08;45.78;98873.59;5072850;28;20082;-50
2022/05/08 00:14:44;;;;;;;3.78;2.10;;;;;;;18.07;45.73;98876.47;5071675;28;20086;-49
2022/05/08 00:17:13;;;;;;;5.38;2.20;;;;;;;18.11;45.55;98872.28;5072709;28;20021;-50
2022/05/08 00:19:40;;;;;;;5.00;1.90;;;;;;;18.03;45.45;98867.41;5072627;28;20029;-49
2022/05/08 00:22:06;;;;;;;10.48;2.40;;;;;;;17.96;45.90;98870.25;5071355;28;20044;-50
2022/05/08 00:24:33;;;;;;;12.52;2.42;;;;;;;17.90;45.74;98866.69;5071294;28;20510;-49
2022/05/08 00:26:59;;;;;;;7.25;2.67;;;;;;;17.85;45.88;98869.28;5072572;28;20094;-49
2022/05/08 00:29:25;;;;;;;8.07;2.38;;;;;;;17.80;45.98;98871.03;5072562;28;20395;-49
2022/05/08 00:31:51;;;;;;;5.10;2.03;;;;;;;17.79;46.08;98872.91;5019641;28;1489650;-49
2022/05/08 00:34:17;;;;;;;5.65;1.80;;;;;;;17.72;46.44;98870.38;5073464;28;20299;-49
2022/05/08 00:36:42;;;;;;;13.15;2.63;;;;;;;17.73;46.58;98866.69;5072031;28;20457;-50
2022/05/08 00:39:08;;;;;;;9.52;3.08;;;;;;;17.78;46.44;98855.34;5073341;28;20071;-49
2022/05/08 00:41:34;;;;;;;3.92;1.95;;;;;;;17.77;46.58;98854.53;5071980;28;20046;-49
2022/05/08 00:44:00;;;;;;;3.45;2.08;;;;;;;17.71;46.51;98860.81;5073321;28;20028;-50
2022/05/08 00:46:27;;;;;;;13.68;2.53;;;;;;;17.64;46.90;98862.81;5073213;28;20021;-49
2022/05/08 00:48:53;;;;;;;4.88;2.75;;;;;;;17.62;46.81;98858.81;5073223;28;20020;-49
2022/05/08 00:51:19;;;;;;;4.43;2.72;;;;;;;17.67;47.05;98858.91;5071818;28;20032;-49
2022/05/08 00:53:51;;;;;;;5.15;3.00;;;;;;;17.58;47.33;98858.50;5073052;28;20050;-49
2022/05/08 00:56:18;;;;;;;9.02;4.30;;;;;;;17.30;49.48;98862.81;5073039;28;20071;-50
2022/05/08 00:58:47;;;;;;;8.73;4.45;;;;;;;16.75;51.12;98856.25;5071667;28;20052;-49
2022/05/08 01:01:14;;;;;;;8.95;4.10;;;;;;;16.36;51.98;98857.88;5072078;28;20024;-49
2022/05/08 01:03:41;;;;;;;18.17;9.07;;;;;;;15.89;53.60;98861.34;5071572;28;20026;-49
2022/05/08 01:06:11;;;;;;;10.77;5.00;;;;;;;15.54;55.13;98862.13;5072808;28;20052;-49
2022/05/08 01:08:43;;;;;;;10.18;6.20;;;;;;;15.42;55.86;98863.94;5071525;28;20044;-49
2022/05/08 01:11:10;;;;;;;11.38;5.30;;;;;;;15.52;56.10;98864.19;5072744;28;20036;-49
2022/05/08 01:13:37;;;;;;;14.82;8.23;;;;;;;15.50;56.17;98865.44;5071413;28;20174;-49
2022/05/08 01:16:07;;;;;;;7.32;4.95;;;;;;;15.44;56.08;98861.06;5071295;28;20119;-49
2022/05/08 01:18:33;;;;;;;16.23;8.68;;;;;;;15.45;56.60;98857.38;5072848;28;20016;-49
2022/05/08 01:20:58;;;;;;;12.23;8.25;;;;;;;15.51;56.52;98859.13;5072377;28;20111;-50
2022/05/08 01:23:24;;;;;;;12.10;4.95;;;;;;;15.42;56.12;98857.84;5071204;28;20024;-49
2022/05/08 01:25:52;;;;;;;13.43;6.85;;;;;;;15.14;56.68;98859.28;5071121;28;20463;-49
2022/05/08 01:28:19;;;;;;;10.02;4.93;;;;;;;15.00;56.92;98856.00;5072430;28;20021;-49
2022/05/08 01:30:47;;;;;;;7.80;4.47;;;;;;;14.85;57.21;98852.94;5070788;28;20445;-49
2022/05/08 01:33:14;;;;;;;8.63;4.88;;;;;;;14.58;57.73;98858.59;5071023;28;20035;-49
2022/05/08 01:35:41;;;;;;;8.63;3.88;;;;;;;14.53;57.73;98853.16;5070931;28;20513;-49
2022/05/08 01:38:07;;;;;;;8.38;5.38;;;;;;;14.55;58.28;98859.81;5070966;28;20082;-49
2022/05/08 01:40:33;;;;;;;8.90;4.57;;;;;;;14.42;59.11;98859.94;5072063;28;20457;-49
2022/05/08 01:43:00;;;;;;;13.63;5.60;;;;;;;14.24;59.80;98859.97;5072219;28;20050;-49
2022/05/08 01:45:26;;;;;;;7.72;5.35;;;;;;;14.04;59.83;98857.53;5070768;28;20020;-49
2022/05/08 01:50:39;;;;;;;8.70;5.57;;;;;;;13.91;60.46;98858.47;5072360;28;20031;-49
2022/05/08 01:53:06;;;;;;;13.02;5.05;;;;;;;13.81;60.88;98861.59;5072091;28;20042;-48
2022/05/08 01:55:32;;;;;;;8.82;5.13;;;;;;;13.66;61.54;98861.94;5071938;28;20016;-49
2022/05/08 01:57:58;;;;;;;11.35;5.70;;;;;;;13.56;61.86;98862.41;5070660;28;20082;-49
2022/05/08 02:00:25;;;;;;;8.27;5.55;;;;;;;13.59;61.64;98863.81;5071860;28;20028;-49
2022/05/08 02:02:52;;;;;;;10.63;4.75;;;;;;;13.69;61.67;98864.13;5070585;28;20025;-49
2022/05/08 02:05:22;;;;;;;8.63;4.88;;;;;;;13.77;61.77;98863.06;5070569;28;20027;-49
2022/05/08 02:07:48;;;;;;;9.95;5.90;;;;;;;13.74;61.51;98863.47;5071888;28;20487;-49
2022/05/08 02:10:16;;;;;;;5.75;4.30;;;;;;;13.65;61.72;98870.84;5071777;28;20024;-49
2022/05/08 02:12:42;;;;;;;15.95;7.30;;;;;;;13.69;61.95;98864.13;5071674;28;20021;-49
2022/05/08 02:15:10;;;;;;;10.50;4.80;;;;;;;13.81;61.53;98858.16;5071732;28;20032;-49
2022/05/08 02:17:37;;;;;;;10.85;4.53;;;;;;;13.67;61.49;98868.00;5071732;28;20052;-49
2022/05/08 02:20:06;;;;;;;8.25;5.07;;;;;;;13.64;61.54;98865.78;5071635;28;20048;-49
2022/05/08 02:22:32;;;;;;;12.75;4.95;;;;;;;13.56;62.00;98867.69;5070332;28;20406;-49
2022/05/08 02:24:58;;;;;;;8.18;4.53;;;;;;;13.51;61.91;98872.78;5071716;28;20013;-49
2022/05/08 02:27:24;;;;;;;8.15;3.53;;;;;;;13.51;61.73;98877.25;5071649;28;20110;-49
2022/05/08 02:29:50;;;;;;;9.25;4.20;;;;;;;13.68;61.62;98873.09;5071411;28;20058;-49
2022/05/08 02:32:16;;;;;;;8.20;4.38;;;;;;;13.78;61.28;98872.56;5070219;28;20073;-49
2022/05/08 02:34:42;;;;;;;27.58;6.97;;;;;;;13.66;61.15;98876.94;5070267;28;20124;-49
2022/05/08 02:37:08;;;;;;;6.10;4.53;;;;;;;13.52;61.63;98881.50;5070249;28;20103;-48
2022/05/08 02:39:34;;;;;;;8.35;4.38;;;;;;;13.36;61.98;98875.75;5071406;28;20103;-49
2022/05/08 02:42:00;;;;;;;10.50;4.15;;;;;;;13.41;62.08;98877.75;5071488;28;20037;-49
2022/05/08 02:44:25;;;;;;;10.52;4.05;;;;;;;13.54;61.84;98882.91;5070153;28;20023;-49
2022/05/08 02:46:51;;;;;;;6.40;3.65;;;;;;;13.81;61.45;98877.44;5071413;28;20501;-49
2022/05/08 02:49:17;;;;;;;12.63;3.33;;;;;;;14.08;60.80;98883.25;5071444;28;20117;-50
2022/05/08 02:51:42;;;;;;;7.68;4.60;;;;;;;14.26;59.75;98876.38;5070366;28;20036;-49
2022/05/08 02:54:08;;;;;;;8.45;4.90;;;;;;;14.13;59.41;98880.78;5071472;28;20052;-48
2022/05/08 02:59:18;;;;;;;7.00;4.68;;;;;;;13.88;60.29;98877.34;5071605;28;20081;-49
2022/05/08 03:01:44;;;;;;;11.68;5.55;;;;;;;13.68;60.75;98880.16;5071324;28;20032;-50
2022/05/08 03:04:10;;;;;;;6.25;4.75;;;;;;;13.62;61.34;98881.81;5069976;28;20524;-49
2022/05/08 03:06:36;;;;;;;7.60;4.45;;;;;;;13.54;61.11;98885.56;5071244;28;20494;-49
2022/05/08 03:09:02;;;;;;;7.20;4.53;;;;;;;13.25;61.36;98875.59;5071283;28;20025;-49
2022/05/08 03:11:32;;;;;;;9.07;4.40;;;;;;;13.13;62.19;98880.72;5069890;28;20020;-49
2022/05/08 03:13:59;;;;;;;4.80;3.55;;;;;;;13.02;62.41;98876.94;5071569;28;20089;-49
2022/05/08 03:16:27;;;;;;;9.10;5.63;;;;;;;12.92;62.90;98874.78;5069788;28;20081;-49
2022/05/08 03:18:55;;;;;;;12.65;5.85;;;;;;;12.86;63.36;98877.41;5069911;28;20016;-49
2022/05/08 03:21:21;;;;;;;10.85;6.65;;;;;;;12.84;63.50;98880.28;5069732;28;20112;-49
2022/05/08 03:23:48;;;;;;;8.20;5.80;;;;;;;12.79;63.95;98872.97;5073060;28;20021;-49
2022/05/08 03:26:16;;;;;;;9.38;4.70;;;;;;;12.78;64.30;98875.84;5073356;28;20029;-49
2022/05/08 03:28:42;;;;;;;12.85;5.75;;;;;;;12.81;64.22;98874.63;5074641;28;20051;-49
2022/05/08 03:31:09;;;;;;;8.73;3.85;;;;;;;12.83;63.97;98865.47;5074343;28;20071;-49
2022/05/08 03:33:37;;;;;;;7.60;4.35;;;;;;;12.97;63.96;98866.22;5074664;28;20025;-48
2022/05/08 03:36:03;;;;;;;6.28;4.05;;;;;;;13.10;63.38;98870.59;5074617;28;20025;-48
2022/05/08 03:38:30;;;;;;;6.30;4.80;;;;;;;13.00;63.08;98860.53;5073185;28;20510;-49
2022/05/08 03:40:56;;;;;;;8.52;4.72;;;;;;;12.90;63.46;98871.53;5074411;28;20024;-49
2022/05/08 03:43:23;;;;;;;11.93;4.82;;;;;;;12.97;63.47;98860.94;5074428;28;20030;-48
2022/05/08 03:45:49;;;;;;;9.60;4.07;;;;;;;12.93;62.96;98865.81;5073083;28;20064;-49
2022/05/08 03:48:19;;;;;;;11.23;4.43;;;;;;;12.83;63.67;98867.31;5074323;28;20394;-50
2022/05/08 03:50:45;;;;;;;5.95;4.28;;;;;;;12.84;63.52;98867.13;5073028;28;20071;-49
2022/05/08 03:53:11;;;;;;;8.57;4.40;;;;;;;12.84;63.57;98855.75;5074296;28;20021;-48
2022/05/08 03:55:37;;;;;;;8.48;4.63;;;;;;;12.91;63.49;98865.22;5074250;28;20534;-49
2022/05/08 03:58:03;;;;;;;6.13;4.05;;;;;;;12.96;63.94;98862.78;5074161;28;20504;-49
2022/05/08 04:00:29;;;;;;;11.25;5.28;;;;;;;13.15;63.66;98855.78;5072749;28;20078;-50
2022/05/08 04:02:55;;;;;;;10.90;4.63;;;;;;;13.30;63.25;98865.22;5072842;28;20491;-48
2022/05/08 04:05:22;;;;;;;8.93;5.30;;;;;;;13.31;62.83;98856.31;5073955;28;20029;-49
2022/05/08 04:07:48;;;;;;;6.47;4.03;;;;;;;13.35;62.75;98870.69;5056033;28;20042;-49
2022/05/08 04:10:14;;;;;;;7.80;4.20;;;;;;;13.45;62.53;98865.75;5072650;28;20105;-49
2022/05/08 04:12:42;;;;;;;7.72;4.47;;;;;;;13.62;62.30;98863.38;5073932;28;20032;-49
2022/05/08 04:17:53;;;;;;;7.82;4.30;;;;;;;14.01;61.46;98866.69;5074122;28;20036;-49
2022/05/08 04:20:18;;;;;;;8.23;4.68;;;;;;;13.85;60.48;98875.16;5072379;28;20017;-49
2022/05/08 04:25:28;;;;;;;11.02;5.25;;;;;;;13.16;62.13;98877.69;5073775;28;20082;-48
2022/05/08 04:27:54;;;;;;;10.88;5.82;;;;;;;13.01;62.57;98885.06;5073625;28;20436;-49
2022/05/08 04:30:20;;;;;;;18.42;9.48;;;;;;;12.86;62.57;98886.16;5072014;28;20041;-49
2022/05/08 04:32:45;;;;;;;10.32;4.18;;;;;;;12.81;63.13;98893.06;5073644;28;20414;-49
2022/05/08 04:35:11;;;;;;;9.75;4.07;;;;;;;12.76;63.01;98891.84;5072358;28;20023;-49
2022/05/08 04:37:37;;;;;;;8.07;3.92;;;;;;;12.76;62.65;98897.13;5073490;28;20028;-49
2022/05/08 04:40:03;;;;;;;22.40;8.75;;;;;;;12.83;63.19;98899.72;5072006;28;20021;-49
2022/05/08 04:42:28;;;;;;;8.57;5.07;;;;;;;13.00;62.63;98900.06;5072085;28;20025;-49
2022/05/08 04:44:54;;;;;;;12.63;7.72;;;;;;;13.01;62.94;98906.94;5073357;28;20555;-49
2022/05/08 04:47:20;;;;;;;18.10;7.78;;;;;;;13.43;62.46;98901.25;5073277;28;20020;-49
2022/05/08 04:49:46;;;;;;;13.82;8.20;;;;;;;14.13;60.49;98896.63;5073233;28;20021;-49
2022/05/08 04:52:12;;;;;;;7.55;4.30;;;;;;;14.36;59.25;98900.44;5073150;28;20027;-48
2022/05/08 04:54:37;;;;;;;7.32;4.00;;;;;;;14.48;58.90;98906.59;5071917;28;20028;-49
2022/05/08 04:57:03;;;;;;;5.75;3.97;;;;;;;15.05;57.56;98906.38;5071731;28;20550;-49
2022/05/08 04:59:29;;;;;;;14.20;5.10;;;;;;;15.36;56.08;98904.50;5072971;28;20028;-49
2022/05/08 05:01:55;;;;;;;13.93;4.72;;;;;;;15.61;55.74;98914.13;5071665;28;20035;-48
2022/05/08 05:04:21;;;;;;;7.63;3.80;;;;;;;15.88;54.73;98910.03;5072881;28;20039;-49
2022/05/08 05:06:47;;;;;;;9.57;4.53;;;;;;;15.90;54.46;98910.63;5072883;28;20486;-50
2022/05/08 05:09:13;;;;;;;7.65;4.45;;;;;;;15.82;54.12;98918.91;5071451;28;20494;-49
2022/05/08 05:11:39;;;;;;;9.77;4.00;;;;;;;15.78;54.25;98915.91;5071419;28;20394;-50
2022/05/08 05:14:05;;;;;;;4.68;3.75;;;;;;;16.00;53.66;98914.53;5072729;28;20016;-49
2022/05/08 05:16:30;;;;;;;5.55;4.53;;;;;;;16.45;53.07;98924.53;5072659;28;20039;-49
2022/05/08 05:18:56;;;;;;;6.72;3.78;;;;;;;16.97;51.37;98920.06;5072595;28;20089;-50
2022/05/08 05:21:22;;;;;;;10.18;4.70;;;;;;;17.41;50.62;98926.69;5071172;28;20040;-50
2022/05/08 05:23:48;;;;;;;7.50;4.47;;;;;;;18.17;49.25;98925.25;5072519;28;20017;-49
2022/05/08 05:26:13;;;;;;;7.45;4.60;;;;;;;18.95;47.58;98922.56;5072448;28;20035;-49
2022/05/08 05:28:39;;;;;;;9.20;4.93;;;;;;;19.59;45.67;98917.56;5072472;28;20024;-50
2022/05/08 05:31:05;;;;;;;10.02;3.80;;;;;;;20.16;43.93;98922.28;5070831;28;20525;-50
2022/05/08 05:33:30;;;;;;;8.27;3.70;;;;;;;20.91;43.06;98916.81;5072271;28;20060;-49
2022/05/08 05:35:56;;;;;;;9.05;3.72;;;;;;;21.83;41.67;98910.78;5072308;28;20023;-49
2022/05/08 05:38:22;;;;;;;7.10;3.42;;;;;;;22.69;40.27;98923.16;5070957;28;20028;-49
2022/05/08 05:40:48;;;;;;;12.95;4.38;;;;;;;23.43;38.46;98915.28;5072131;28;20074;-50
2022/05/08 05:43:13;;;;;;;5.90;3.97;;;;;;;23.86;37.56;98914.69;5072190;28;20024;-50
2022/05/08 05:45:40;;;;;;;5.57;3.40;;;;;;;24.19;36.86;98917.63;5071789;28;20487;-50
2022/05/08 05:48:06;;;;;;;7.20;3.33;;;;;;;24.58;36.08;98922.81;5072095;28;20093;-50
2022/05/08 05:50:31;;;;;;;7.93;4.30;;;;;;;25.17;35.79;98917.22;5070834;28;20498;-49
2022/05/08 05:52:57;;;;;;;5.80;3.08;;;;;;;25.79;34.17;98922.47;5072047;28;20470;-50
2022/05/08 05:55:23;;;;;;;9.85;3.67;;;;;;;26.12;33.28;98912.50;5070672;28;20025;-50
2022/05/08 05:57:49;;;;;;;5.32;2.60;;;;;;;26.33;33.10;98917.50;5072565;28;20103;-50
2022/05/08 06:00:16;;;;;;;11.73;3.33;;;;;;;26.75;32.17;98911.00;5071842;28;20050;-50
2022/05/08 06:02:43;;;;;;;4.35;3.05;;;;;;;26.22;32.47;98916.88;5071915;28;20375;-49
2022/05/08 06:05:11;;;;;;;5.60;3.25;;;;;;;26.38;32.13;98918.19;5071873;28;20047;-49
2022/05/08 06:07:38;;;;;;;6.40;2.90;;;;;;;26.75;31.73;98915.63;5071927;28;20050;-49
2022/05/08 06:10:07;;;;;;;7.93;3.72;;;;;;;27.10;30.55;98914.03;5070555;28;20055;-50
2022/05/08 06:12:33;;;;;;;6.57;3.00;;;;;;;27.35;30.60;98915.38;5071825;28;20047;-50
2022/05/08 06:14:59;;;;;;;5.18;2.80;;;;;;;27.93;29.70;98916.41;5072053;28;20021;-49
2022/05/08 06:17:25;;;;;;;9.05;3.03;;;;;;;28.34;28.98;98917.22;5071772;28;20017;-50
2022/05/08 06:19:50;;;;;;;9.00;3.70;;;;;;;28.39;28.81;98917.88;5071613;28;20024;-50
2022/05/08 06:22:16;;;;;;;3.72;2.78;;;;;;;28.74;28.29;98909.88;5071665;28;20024;-49
2022/05/08 06:24:42;;;;;;;4.22;3.10;;;;;;;29.17;27.65;98913.75;5070407;28;20029;-50
2022/05/08 06:27:08;;;;;;;5.32;3.00;;;;;;;29.62;26.88;98916.91;5070311;28;20031;-50
2022/05/08 06:29:34;;;;;;;8.10;3.38;;;;;;;29.92;26.64;98919.72;5070372;28;20028;-49
2022/05/08 06:32:00;;;;;;;20.58;7.85;;;;;;;30.10;26.60;98922.38;5071404;28;20086;-50
2022/05/08 06:34:27;;;;;;;9.35;7.07;;;;;;;29.99;26.92;98930.84;5070327;28;20027;-50
2022/05/08 06:36:54;;;;;;;14.27;4.60;;;;;;;29.67;26.99;98929.47;5071583;28;20075;-49
2022/05/08 06:39:20;;;;;;;17.77;10.70;;;;;;;29.85;26.31;98933.75;5071561;28;20109;-50
2022/05/08 06:41:47;;;;;;;15.93;4.07;;;;;;;29.92;26.20;98933.25;5070196;28;20025;-50
2022/05/08 06:44:14;;;;;;;7.50;4.05;;;;;;;30.20;25.63;98938.25;5071559;28;20058;-50
2022/05/08 06:46:40;;;;;;;4.80;3.30;;;;;;;30.47;25.51;98937.06;5071509;28;20021;-50
2022/05/08 06:49:07;;;;;;;6.18;3.58;;;;;;;30.44;25.57;98935.00;5070136;28;20041;-50
2022/05/08 06:51:34;;;;;;;8.93;4.13;;;;;;;30.39;25.48;98930.56;5071434;28;20030;-50
2022/05/08 06:54:00;;;;;;;8.73;3.75;;;;;;;30.49;25.51;98945.66;5071397;28;20032;-50
2022/05/08 06:56:26;;;;;;;8.02;3.70;;;;;;;30.66;25.26;98940.13;5071319;28;20062;-50
2022/05/08 07:01:42;;;;;;;7.05;4.38;;;;;;;31.10;25.00;98947.22;5075350;28;20044;-50
2022/05/08 07:04:10;;;;;;;7.80;3.20;;;;;;;30.95;24.64;98948.59;5073969;28;20032;-50
2022/05/08 07:06:37;;;;;;;7.10;3.20;;;;;;;30.38;25.52;98947.91;5075181;28;20027;-50
2022/05/08 07:09:07;;;;;;;6.88;3.13;;;;;;;30.51;25.51;98943.41;5075118;28;20367;-50
2022/05/08 07:11:33;;;;;;;8.60;3.58;;;;;;;29.94;25.95;98941.88;5075023;28;20081;-50
2022/05/08 07:14:00;;;;;;;8.43;3.08;;;;;;;30.09;26.30;98942.44;5073695;28;20020;-50
2022/05/08 07:16:27;;;;;;;4.93;3.80;;;;;;;30.23;25.78;98941.09;5075006;28;20491;-50
2022/05/08 07:18:54;;;;;;;7.07;4.10;;;;;;;30.13;26.17;98941.47;5074929;28;20074;-50
2022/05/08 07:21:20;;;;;;;4.07;3.20;;;;;;;30.16;26.45;98942.72;5074828;28;20030;-51
2022/05/08 07:23:46;;;;;;;6.88;3.15;;;;;;;30.27;26.06;98939.34;5074838;28;20028;-51
2022/05/08 07:26:12;;;;;;;10.80;3.60;;;;;;;30.76;25.63;98944.38;5074735;28;20036;-50
2022/05/08 07:28:38;;;;;;;5.05;3.15;;;;;;;31.36;24.97;98944.28;5074779;28;20033;-50
2022/05/08 07:31:04;;;;;;;7.25;3.20;;;;;;;31.61;24.40;98942.50;5074340;28;20126;-50
2022/05/08 07:33:36;;;;;;;5.43;3.53;;;;;;;32.31;23.46;98939.81;5074636;28;20108;-50
2022/05/08 07:36:12;;;;;;;7.00;3.42;;;;;;;32.95;22.59;98940.25;5074602;28;20021;-51
2022/05/08 07:38:40;;;;;;;7.60;3.25;;;;;;;33.51;22.31;98944.97;5074674;28;20133;-50
2022/05/08 07:41:06;;;;;;;7.53;3.35;;;;;;;33.83;21.68;98948.59;5074472;28;20029;-50
2022/05/08 07:43:32;;;;;;;4.13;3.20;;;;;;;33.79;21.77;98943.03;5074501;28;20024;-50
2022/05/08 07:45:58;;;;;;;4.75;3.38;;;;;;;33.43;22.16;98949.44;5074465;28;20035;-51
2022/05/08 07:48:24;;;;;;;5.22;3.40;;;;;;;33.72;21.80;98944.78;5074452;28;20052;-50
2022/05/08 07:50:50;;;;;;;6.97;3.13;;;;;;;33.56;21.94;98944.72;5074272;28;20067;-49
2022/05/08 07:53:16;;;;;;;5.85;3.15;;;;;;;33.38;21.73;98946.94;5074325;28;20020;-50
2022/05/08 07:55:42;;;;;;;6.53;3.33;;;;;;;32.96;21.99;98947.25;5072953;28;20408;-50
2022/05/08 07:58:09;;;;;;;6.75;3.72;;;;;;;32.98;22.57;98945.81;5072906;28;20551;-51
2022/05/08 08:00:36;;;;;;;5.20;2.95;;;;;;;32.88;22.30;98951.72;5074098;28;20025;-51
2022/05/08 08:03:03;;;;;;;4.68;2.75;;;;;;;32.64;22.98;98945.19;5074136;28;20108;-50
2022/05/08 08:05:29;;;;;;;4.07;3.25;;;;;;;32.86;22.67;98953.19;5074073;28;20024;-51
2022/05/08 08:07:55;;;;;;;5.47;3.63;;;;;;;32.82;22.50;98959.31;5072737;28;20051;-50
2022/05/08 08:10:21;;;;;;;6.00;3.20;;;;;;;32.35;23.23;98959.75;5073757;28;20460;-50
2022/05/08 08:12:47;;;;;;;7.53;3.00;;;;;;;32.41;23.00;98958.38;5073969;28;20029;-49
2022/05/08 08:15:13;;;;;;;5.30;3.22;;;;;;;32.60;23.10;98962.50;5072603;28;20529;-50
2022/05/08 08:17:39;;;;;;;5.07;3.40;;;;;;;33.27;22.35;98957.53;5073855;28;20056;-51
2022/05/08 08:20:06;;;;;;;6.40;3.58;;;;;;;33.51;22.28;98964.81;5073725;28;20035;-50
2022/05/08 08:22:33;;;;;;;5.63;3.50;;;;;;;33.66;21.78;98962.50;5073843;28;20550;-51
2022/05/08 08:25:00;;;;;;;5.07;3.67;;;;;;;34.18;21.52;98961.53;5072413;28;20031;-51
2022/05/08 08:27:27;;;;;;;3.55;3.00;;;;;;;34.66;20.66;98969.72;5073713;28;20025;-51
2022/05/08 08:29:54;;;;;;;4.15;3.25;;;;;;;34.71;20.91;98964.78;5073681;28;20161;-50
2022/05/08 08:32:21;;;;;;;5.55;3.70;;;;;;;34.60;20.74;98966.44;5073662;28;20488;-51
2022/05/08 08:34:48;;;;;;;5.50;3.00;;;;;;;34.94;20.40;98969.56;5073555;28;20028;-50
2022/05/08 08:37:15;;;;;;;4.00;3.33;;;;;;;35.38;19.87;98972.06;5072153;28;20098;-50
2022/05/08 08:39:42;;;;;;;6.93;3.78;;;;;;;35.65;19.66;98980.38;5073374;28;20108;-49
2022/05/08 08:42:31;;;;;;;9.70;6.88;;;;;;;35.91;19.36;98977.75;5073443;28;20021;-50
2022/05/08 08:48:08;;;;;;;5.82;3.40;;;;;;;37.02;17.89;98967.81;5073563;28;20582;-50
2022/05/08 08:50:35;;;;;;;5.10;4.07;;;;;;;37.17;18.42;98974.28;5073237;28;20054;-51
2022/05/08 08:53:03;;;;;;;4.80;4.13;;;;;;;36.90;17.97;98976.25;5071834;28;20025;-51
2022/05/08 08:55:31;;;;;;;7.65;3.65;;;;;;;37.16;18.36;98976.22;5073094;28;20608;-50
2022/05/08 08:57:57;;;;;;;5.22;3.42;;;;;;;37.59;17.48;98973.25;5073123;28;20375;-51
2022/05/08 09:00:23;;;;;;;4.63;2.85;;;;;;;37.70;17.87;98970.63;5072960;28;20063;-50
2022/05/08 09:02:52;;;;;;;6.90;3.25;;;;;;;37.78;17.63;98975.78;5072968;28;20043;-50
2022/05/08 09:05:18;;;;;;;4.95;3.10;;;;;;;38.11;17.51;98965.94;5072839;28;20406;-51
2022/05/08 09:07:52;;;;;;;6.75;3.33;;;;;;;37.93;17.74;98968.50;5072850;28;20028;-51
2022/05/08 09:10:19;;;;;;;5.18;3.47;;;;;;;37.16;18.07;98970.75;5072832;28;20522;-51
2022/05/08 09:13:06;;;;;;;5.90;3.83;;;;;;;37.13;18.02;98968.00;5072719;28;20021;-51
2022/05/08 09:15:36;;;;;;;4.05;2.90;;;;;;;36.93;18.04;98970.81;5071447;28;20035;-51
2022/05/08 09:18:09;;;;;;;4.47;3.28;;;;;;;37.10;18.07;98968.69;5071387;28;20021;-50
2022/05/08 09:20:48;;;;;;;6.25;3.45;;;;;;;37.54;17.97;98966.09;5071955;28;20033;-50
2022/05/08 09:23:21;;;;;;;3.50;3.10;;;;;;;38.18;17.15;98962.47;5072668;28;20024;-49
2022/05/08 09:25:56;;;;;;;5.32;3.60;;;;;;;38.27;17.13;98960.19;5072648;28;20036;-51
2022/05/08 09:28:29;;;;;;;5.10;3.10;;;;;;;37.83;17.03;98963.72;5072601;28;20036;-52
2022/05/08 09:31:07;;;;;;;5.55;2.47;;;;;;;37.69;17.46;98966.28;5072212;28;20037;-50
2022/05/08 09:33:36;;;;;;;5.70;2.88;;;;;;;38.07;17.50;98969.81;5072441;28;20039;-51
2022/05/08 09:36:05;;;;;;;4.28;3.10;;;;;;;38.22;17.08;98963.28;5072339;28;20025;-51
2022/05/08 09:38:47;;;;;;;5.13;2.70;;;;;;;37.56;17.45;98966.53;5071003;28;20423;-51
2022/05/08 09:41:21;;;;;;;7.10;2.90;;;;;;;36.85;18.15;98968.38;5072175;28;20017;-51
2022/05/08 09:43:49;;;;;;;4.55;3.10;;;;;;;37.09;18.17;98969.88;5070991;28;20021;-50
2022/05/08 09:46:15;;;;;;;7.28;3.10;;;;;;;37.65;17.52;98963.53;5072140;28;20016;-51
2022/05/08 09:48:41;;;;;;;9.07;3.03;;;;;;;37.51;17.67;98958.66;5070798;28;20078;-51
2022/05/08 09:51:11;;;;;;;6.15;2.85;;;;;;;37.67;17.46;98968.59;5070783;28;20047;-51
2022/05/08 09:53:39;;;;;;;5.47;2.85;;;;;;;37.95;16.95;98966.16;5072058;28;20021;-52
2022/05/08 09:56:10;;;;;;;7.00;3.03;;;;;;;37.68;17.88;98960.03;5072330;28;20083;-52
2022/05/08 09:58:39;;;;;;;8.63;2.70;;;;;;;37.27;17.99;98970.91;5071924;28;20025;-51
2022/05/08 10:01:07;;;;;;;3.35;2.55;;;;;;;37.64;17.58;98958.41;5071866;28;20017;-51
2022/05/08 10:03:33;;;;;;;10.35;3.35;;;;;;;37.67;17.30;98960.41;5070651;28;20119;-50
2022/05/08 10:06:00;;;;;;;4.28;3.30;;;;;;;37.81;17.32;98963.28;5071888;28;20073;-51
2022/05/08 10:08:33;;;;;;;4.82;2.83;;;;;;;37.78;17.23;98969.53;5071871;28;20024;-51
2022/05/08 10:13:59;;;;;;;5.97;2.67;;;;;;;38.04;16.67;98959.59;5072148;28;20067;-51
2022/05/08 10:16:57;;;;;;;4.72;2.78;;;;;;;38.22;17.54;98962.50;5070468;28;20460;-51
2022/05/08 10:19:25;;;;;;;7.57;3.60;;;;;;;38.62;17.23;98958.91;5071681;28;20058;-51
2022/05/08 10:22:02;;;;;;;6.50;3.15;;;;;;;38.39;17.04;98964.56;5071768;28;20051;-51
2022/05/08 10:24:38;;;;;;;4.45;2.40;;;;;;;38.19;17.06;98957.75;5071766;28;20116;-51
2022/05/08 10:27:28;;;;;;;2.63;2.22;;;;;;;38.54;16.94;98951.78;5071716;28;20533;-51
2022/05/08 10:29:54;;;;;;;6.85;3.60;;;;;;;38.43;16.66;98953.63;5071489;28;20032;-53
2022/05/08 10:32:30;;;;;;;5.68;2.60;;;;;;;38.20;17.07;98957.41;5071562;28;20491;-51
2022/05/08 10:35:12;;;;;;;4.07;2.70;;;;;;;38.01;16.93;98952.09;5076103;28;20059;-51
2022/05/08 10:37:43;;;;;;;5.38;3.47;;;;;;;37.31;18.15;98949.06;5074440;28;20485;-51
2022/05/08 10:40:23;;;;;;;3.40;2.67;;;;;;;36.86;18.15;98954.31;5075611;28;20025;-51
2022/05/08 10:42:50;;;;;;;4.60;3.13;;;;;;;35.35;19.40;98956.41;5075740;28;20035;-50
2022/05/08 10:45:40;;;;;;;3.17;2.70;;;;;;;34.11;20.82;98953.16;5075614;28;20035;-51
2022/05/08 10:48:20;;;;;;;3.15;2.60;;;;;;;32.87;21.67;98957.50;5075588;28;20027;-51
2022/05/08 10:50:50;;;;;;;4.88;3.00;;;;;;;32.49;22.33;98950.47;5074278;28;20036;-51
2022/05/08 10:53:42;;;;;;;8.68;2.95;;;;;;;33.35;21.70;98958.53;5074504;28;20021;-50
2022/05/08 10:56:11;;;;;;;6.82;2.88;;;;;;;33.27;21.45;98954.03;5089810;28;20041;-50
2022/05/08 10:58:40;;;;;;;5.13;2.40;;;;;;;32.87;21.48;98955.56;5074079;28;20157;-50
2022/05/08 11:01:10;;;;;;;2.88;2.60;;;;;;;32.32;22.51;98948.78;5075218;28;20100;-50
2022/05/08 11:03:36;;;;;;;7.20;3.28;;;;;;;31.77;23.05;98961.66;5073960;28;20500;-51
2022/05/08 11:06:05;;;;;;;6.40;3.38;;;;;;;31.94;23.44;98947.91;5075249;28;20044;-50
2022/05/08 11:08:33;;;;;;;4.57;2.92;;;;;;;32.87;22.24;98941.19;5073838;28;20080;-51
2022/05/08 11:11:09;;;;;;;4.90;3.40;;;;;;;33.17;22.19;98941.69;5075129;28;20047;-50
2022/05/08 11:13:42;;;;;;;8.07;2.50;;;;;;;33.69;21.71;98943.56;5075136;28;20078;-51
2022/05/08 11:16:08;;;;;;;4.15;2.38;;;;;;;34.48;20.73;98947.47;5074031;28;20472;-51
2022/05/08 11:18:34;;;;;;;2.70;2.40;;;;;;;35.09;20.09;98938.69;5073645;28;20059;-51
2022/05/08 11:21:02;;;;;;;5.07;3.17;;;;;;;34.64;19.87;98934.59;5073561;28;20052;-51
2022/05/08 11:23:33;;;;;;;3.15;2.33;;;;;;;33.89;21.12;98944.47;5073567;28;20024;-51
2022/05/08 11:26:07;;;;;;;5.70;3.92;;;;;;;33.77;20.94;98941.81;5074861;28;20135;-50
2022/05/08 11:28:35;;;;;;;9.30;4.03;;;;;;;34.03;20.86;98933.94;5073588;28;20029;-51
2022/05/08 11:31:12;;;;;;;3.75;2.25;;;;;;;34.56;20.70;98944.53;5073128;28;20043;-51
2022/05/08 11:36:26;;;;;;;4.00;2.35;;;;;;;33.86;21.38;98941.66;5074927;28;20040;-50
2022/05/08 11:38:55;;;;;;;8.05;2.83;;;;;;;33.97;21.04;98943.50;5074557;28;20056;-50
2022/05/08 11:41:27;;;;;;;3.47;2.05;;;;;;;33.84;21.16;98936.53;5073442;28;20028;-50
2022/05/08 11:43:55;;;;;;;5.50;2.17;;;;;;;33.58;21.19;98939.72;5073849;28;20028;-51
2022/05/08 11:46:38;;;;;;;7.20;5.30;;;;;;;34.61;21.05;98933.38;5073102;28;20379;-51
2022/05/08 11:49:14;;;;;;;3.13;2.22;;;;;;;35.23;20.42;98932.78;5074403;28;20039;-52
2022/05/08 11:51:42;;;;;;;2.42;2.15;;;;;;;35.74;19.60;98935.34;5073110;28;20028;-51
2022/05/08 11:54:32;;;;;;;6.38;2.35;;;;;;;34.98;20.05;98929.53;5073070;28;20064;-49
2022/05/08 11:57:28;;;;;;;2.95;2.10;;;;;;;33.28;21.55;98928.41;5073065;28;20401;-50
2022/05/08 12:00:07;;;;;;;3.95;2.10;;;;;;;32.13;22.58;98924.88;5073509;28;20044;-50